createdAt,value
2023-03-07T00:01:26.888Z,93.99
2023-03-07T00:03:55.795Z,93.00
2023-03-07T00:06:24.724Z,92.97
2023-03-07T00:08:53.863Z,93.55
2023-03-07T00:11:22.469Z,93.65
2023-03-07T00:13:50.825Z,94.14
2023-03-07T00:16:22.194Z,94.82
2023-03-07T00:18:53.150Z,94.77
2023-03-07T00:21:23.519Z,95.04
2023-03-07T00:23:54.077Z,95.38
2023-03-07T00:26:24.687Z,95.19
2023-03-07T00:28:54.779Z,94.92
2023-03-07T00:31:24.188Z,94.79
2023-03-07T00:33:53.954Z,95.28
2023-03-07T00:36:24.155Z,95.72
2023-03-07T00:38:53.237Z,96.32
2023-03-07T00:41:23.261Z,96.80
2023-03-07T00:43:52.305Z,98.35
2023-03-07T00:46:22.410Z,99.33
2023-03-07T00:48:51.282Z,100.00
2023-03-07T00:51:21.758Z,100.00
2023-03-07T00:53:50.100Z,100.00
2023-03-07T00:56:20.482Z,100.00
2023-03-07T00:58:49.628Z,100.00
2023-03-07T01:01:20.793Z,100.00
2023-03-07T01:03:50.409Z,100.00
2023-03-07T01:06:22.835Z,100.00
2023-03-07T01:08:51.212Z,100.00
2023-03-07T01:11:19.663Z,100.00
2023-03-07T01:13:48.113Z,100.00
2023-03-07T01:16:19.514Z,100.00
2023-03-07T01:18:50.907Z,100.00
2023-03-07T01:21:22.869Z,100.00
2023-03-07T01:23:51.406Z,100.00
2023-03-07T01:26:21.780Z,100.00
2023-03-07T01:28:52.552Z,100.00
2023-03-07T01:31:21.867Z,100.00
2023-03-07T01:33:51.570Z,100.00
2023-03-07T01:36:25.475Z,100.00
2023-03-07T01:38:56.632Z,100.00
2023-03-07T01:41:29.774Z,100.00
2023-03-07T01:43:58.049Z,100.00
2023-03-07T01:46:47.231Z,100.00
2023-03-07T01:49:24.083Z,99.30
2023-03-07T01:51:59.137Z,98.75
2023-03-07T01:54:28.567Z,98.59
2023-03-07T01:56:57.333Z,99.11
2023-03-07T01:59:31.057Z,100.00
2023-03-07T02:02:04.845Z,100.00
2023-03-07T02:04:38.182Z,100.00
2023-03-07T02:07:10.167Z,100.00
2023-03-07T02:09:40.142Z,100.00
2023-03-07T02:12:10.223Z,100.00
2023-03-07T02:14:39.524Z,100.00
2023-03-07T02:17:08.161Z,100.00
2023-03-07T02:19:49.740Z,100.00
2023-03-07T02:22:20.786Z,100.00
2023-03-07T02:24:54.436Z,100.00
2023-03-07T02:27:25.930Z,100.00
2023-03-07T02:29:54.536Z,100.00
2023-03-07T02:32:23.178Z,100.00
2023-03-07T02:34:51.570Z,100.00
2023-03-07T02:37:23.885Z,100.00
2023-03-07T02:39:52.291Z,100.00
2023-03-07T02:42:25.966Z,100.00
2023-03-07T02:44:58.858Z,100.00
2023-03-07T02:47:27.729Z,100.00
2023-03-07T02:49:56.060Z,100.00
2023-03-07T02:52:25.310Z,100.00
2023-03-07T02:54:53.737Z,100.00
2023-03-07T02:57:22.026Z,100.00
2023-03-07T02:59:54.665Z,100.00
2023-03-07T03:02:23.142Z,100.00
2023-03-07T03:04:51.694Z,100.00
2023-03-07T03:07:20.061Z,100.00
2023-03-07T03:09:48.506Z,100.00
2023-03-07T03:12:17.011Z,100.00
2023-03-07T03:14:45.339Z,100.00
2023-03-07T03:17:15.206Z,100.00
2023-03-07T03:19:43.846Z,100.00
2023-03-07T03:22:12.371Z,100.00
2023-03-07T03:24:41.682Z,100.00
2023-03-07T03:27:10.856Z,100.00
2023-03-07T03:29:39.653Z,100.00
2023-03-07T03:32:08.831Z,100.00
2023-03-07T03:34:39.112Z,100.00
2023-03-07T03:37:08.020Z,100.00
2023-03-07T03:39:36.340Z,100.00
2023-03-07T03:42:06.338Z,100.00
2023-03-07T03:44:34.730Z,100.00
2023-03-07T03:47:04.269Z,100.00
2023-03-07T03:49:33.208Z,100.00
2023-03-07T03:52:02.930Z,100.00
2023-03-07T03:54:31.229Z,100.00
2023-03-07T03:56:59.612Z,100.00
2023-03-07T03:59:28.159Z,100.00
2023-03-07T04:01:56.598Z,100.00
2023-03-07T04:04:25.139Z,100.00
2023-03-07T04:06:53.626Z,100.00
2023-03-07T04:09:24.367Z,100.00
2023-03-07T04:11:52.822Z,100.00
2023-03-07T04:14:21.188Z,100.00
2023-03-07T04:16:49.591Z,100.00
2023-03-07T04:19:18.221Z,100.00
2023-03-07T04:21:46.656Z,100.00
2023-03-07T04:24:14.960Z,100.00
2023-03-07T04:26:44.756Z,100.00
2023-03-07T04:29:13.233Z,100.00
2023-03-07T04:31:41.887Z,100.00
2023-03-07T04:34:10.434Z,100.00
2023-03-07T04:36:38.859Z,100.00
2023-03-07T04:39:07.228Z,100.00
2023-03-07T04:41:35.528Z,100.00
2023-03-07T04:44:05.595Z,100.00
2023-03-07T04:46:33.899Z,100.00
2023-03-07T04:49:02.467Z,100.00
2023-03-07T04:51:31.178Z,100.00
2023-03-07T04:53:59.571Z,100.00
2023-03-07T04:56:28.130Z,100.00
2023-03-07T04:58:56.419Z,100.00
2023-03-07T05:01:26.189Z,100.00
2023-03-07T05:03:55.650Z,100.00
2023-03-07T05:06:24.874Z,100.00
2023-03-07T05:08:53.218Z,100.00
2023-03-07T05:11:22.713Z,100.00
2023-03-07T05:13:51.001Z,100.00
2023-03-07T05:16:19.383Z,100.00
2023-03-07T05:18:49.348Z,100.00
2023-03-07T05:21:17.799Z,100.00
2023-03-07T05:23:46.152Z,100.00
2023-03-07T05:26:14.529Z,100.00
2023-03-07T05:28:42.861Z,100.00
2023-03-07T05:31:11.321Z,100.00
2023-03-07T05:33:42.734Z,100.00
2023-03-07T05:36:12.530Z,100.00
2023-03-07T05:38:40.976Z,99.66
2023-03-07T05:41:09.428Z,97.88
2023-03-07T05:43:37.885Z,90.43
2023-03-07T05:46:06.586Z,85.37
2023-03-07T05:48:34.990Z,82.20
2023-03-07T05:51:03.441Z,78.65
2023-03-07T05:53:33.235Z,76.70
2023-03-07T05:56:01.637Z,76.08
2023-03-07T05:58:30.178Z,75.00
2023-03-07T06:00:58.522Z,74.91
2023-03-07T06:03:26.949Z,71.75
2023-03-07T06:05:55.287Z,68.94
2023-03-07T06:08:23.743Z,69.10
2023-03-07T06:10:53.748Z,68.48
2023-03-07T06:13:24.457Z,66.08
2023-03-07T06:15:53.922Z,62.41
2023-03-07T06:18:23.990Z,60.31
2023-03-07T06:20:59.960Z,59.97
2023-03-07T06:23:29.130Z,58.68
2023-03-07T06:26:02.225Z,60.68
2023-03-07T06:28:32.796Z,62.26
2023-03-07T06:31:01.467Z,61.23
2023-03-07T06:33:30.426Z,58.70
2023-03-07T06:35:58.781Z,58.38
2023-03-07T06:38:28.087Z,58.26
2023-03-07T06:40:57.554Z,57.22
2023-03-07T06:43:27.350Z,56.36
2023-03-07T06:45:55.871Z,57.97
2023-03-07T06:48:24.430Z,58.22
2023-03-07T06:50:52.900Z,58.53
2023-03-07T06:53:21.510Z,59.98
2023-03-07T06:55:50.994Z,61.88
2023-03-07T06:58:19.785Z,63.41
2023-03-07T07:00:49.597Z,64.81
2023-03-07T07:03:20.728Z,66.25
2023-03-07T07:05:49.102Z,66.99
2023-03-07T07:08:17.396Z,67.02
2023-03-07T07:10:46.945Z,66.67
2023-03-07T07:13:15.239Z,66.65
2023-03-07T07:15:43.601Z,67.62
2023-03-07T07:18:15.197Z,69.19
2023-03-07T07:20:44.409Z,69.99
2023-03-07T07:23:12.797Z,69.80
2023-03-07T07:25:41.094Z,70.00
2023-03-07T07:28:09.570Z,69.40
2023-03-07T07:30:37.904Z,68.74
2023-03-07T07:33:06.341Z,68.67
2023-03-07T07:35:36.099Z,68.01
2023-03-07T07:38:04.718Z,68.44
2023-03-07T07:40:33.059Z,68.01
2023-03-07T07:43:01.377Z,67.62
2023-03-07T07:45:29.675Z,67.88
2023-03-07T07:47:58.092Z,66.97
2023-03-07T07:50:26.413Z,66.46
2023-03-07T07:52:56.205Z,66.67
2023-03-07T07:55:25.086Z,66.56
2023-03-07T07:57:54.161Z,65.05
2023-03-07T08:00:22.998Z,65.53
2023-03-07T08:02:52.211Z,64.36
2023-03-07T08:05:21.570Z,63.65
2023-03-07T08:07:50.968Z,64.29
2023-03-07T08:10:21.882Z,64.87
2023-03-07T08:12:52.238Z,64.27
2023-03-07T08:15:23.017Z,65.49
2023-03-07T08:17:52.609Z,65.40
2023-03-07T08:20:22.578Z,64.09
2023-03-07T08:22:53.078Z,63.93
2023-03-07T08:25:25.646Z,63.90
2023-03-07T08:27:55.524Z,62.98
2023-03-07T08:30:24.954Z,63.94
2023-03-07T08:32:54.544Z,63.45
2023-03-07T08:35:23.768Z,63.06
2023-03-07T08:37:55.985Z,63.05
2023-03-07T08:40:26.313Z,63.35
2023-03-07T08:42:55.358Z,64.17
2023-03-07T08:45:24.159Z,63.91
2023-03-07T08:47:54.571Z,64.62
2023-03-07T08:50:23.468Z,64.29
2023-03-07T08:52:51.821Z,63.84
2023-03-07T08:55:20.580Z,64.45
2023-03-07T08:57:50.476Z,64.68
2023-03-07T09:00:19.685Z,67.48
2023-03-07T09:02:48.138Z,69.56
2023-03-07T09:05:16.547Z,68.24
2023-03-07T09:07:44.980Z,67.28
2023-03-07T09:10:13.394Z,66.99
2023-03-07T09:12:41.748Z,65.41
2023-03-07T09:15:12.516Z,64.89
2023-03-07T09:17:41.051Z,64.34
2023-03-07T09:20:11.995Z,64.25
2023-03-07T09:22:40.276Z,64.81
2023-03-07T09:25:09.439Z,65.29
2023-03-07T09:27:37.817Z,64.39
2023-03-07T09:30:07.381Z,63.82
2023-03-07T09:32:37.584Z,64.08
2023-03-07T09:35:06.698Z,64.52
2023-03-07T09:37:34.954Z,65.58
2023-03-07T09:40:05.164Z,66.84
2023-03-07T09:42:41.517Z,66.77
2023-03-07T09:45:22.750Z,67.14
2023-03-07T09:48:10.173Z,66.40
2023-03-07T09:50:45.636Z,65.99
2023-03-07T09:53:21.776Z,65.96
2023-03-07T09:55:52.882Z,65.58
2023-03-07T09:58:24.945Z,66.33
2023-03-07T10:01:00.046Z,66.74
2023-03-07T10:03:43.004Z,69.13
2023-03-07T10:06:16.020Z,70.61
2023-03-07T10:08:44.511Z,71.44
2023-03-07T10:11:24.851Z,72.68
2023-03-07T10:14:10.160Z,72.98
2023-03-07T10:16:46.646Z,72.16
2023-03-07T10:19:26.615Z,71.49
2023-03-07T10:22:04.835Z,70.92
2023-03-07T10:24:49.116Z,69.88
2023-03-07T10:27:17.685Z,69.38
2023-03-07T10:29:48.759Z,70.31
2023-03-07T10:32:33.414Z,69.94
2023-03-07T10:35:16.250Z,70.93
2023-03-07T10:37:50.488Z,74.62
2023-03-07T10:40:26.932Z,75.18
2023-03-07T10:42:56.408Z,76.26
2023-03-07T10:45:24.889Z,75.09
2023-03-07T10:47:53.240Z,74.18
2023-03-07T10:50:32.633Z,74.19
2023-03-07T10:53:03.731Z,75.39
2023-03-07T10:55:43.016Z,74.42
2023-03-07T10:58:16.950Z,74.71
2023-03-07T11:00:45.847Z,77.19
2023-03-07T11:03:28.255Z,78.59
2023-03-07T11:06:00.024Z,78.54
2023-03-07T11:08:31.893Z,79.00
2023-03-07T11:11:01.286Z,79.12
2023-03-07T11:13:30.412Z,81.14
2023-03-07T11:16:17.877Z,81.84
2023-03-07T11:18:46.491Z,83.89
2023-03-07T11:21:33.766Z,86.57
2023-03-07T11:24:04.857Z,87.72
2023-03-07T11:26:40.481Z,86.79
2023-03-07T11:29:10.593Z,84.72
2023-03-07T11:31:53.167Z,83.77
2023-03-07T11:34:45.306Z,83.17
2023-03-07T11:37:33.177Z,82.69
2023-03-07T11:40:19.859Z,80.75
2023-03-07T11:43:00.600Z,79.52
2023-03-07T11:45:40.150Z,79.83
2023-03-07T11:48:20.329Z,79.01
2023-03-07T11:50:54.565Z,79.19
2023-03-07T11:53:44.616Z,79.84
2023-03-07T11:56:26.225Z,79.99
2023-03-07T11:59:36.590Z,78.41
2023-03-07T12:02:22.330Z,76.96
2023-03-07T12:05:21.570Z,75.15
2023-03-07T12:08:04.703Z,74.42
2023-03-07T12:10:50.175Z,73.95
2023-03-07T12:13:31.954Z,72.90
2023-03-07T12:16:09.365Z,74.73
2023-03-07T12:19:02.327Z,75.38
2023-03-07T12:21:46.091Z,76.68
2023-03-07T12:24:19.253Z,78.10
2023-03-07T12:26:55.300Z,78.88
2023-03-07T12:29:35.805Z,79.94
2023-03-07T12:32:11.171Z,81.92
2023-03-07T12:34:45.297Z,83.55
2023-03-07T12:37:17.997Z,85.25
2023-03-07T12:39:51.880Z,85.84
2023-03-07T12:42:32.302Z,86.80
2023-03-07T12:45:06.322Z,86.74
2023-03-07T12:47:50.538Z,87.58
2023-03-07T12:50:25.096Z,88.96
2023-03-07T12:52:57.732Z,89.10
2023-03-07T12:55:30.842Z,89.37
2023-03-07T12:58:08.529Z,89.18
2023-03-07T13:00:41.527Z,89.29
2023-03-07T13:03:18.356Z,88.79
2023-03-07T13:05:47.062Z,90.21
2023-03-07T13:08:23.560Z,90.93
2023-03-07T13:10:52.461Z,90.43
2023-03-07T13:13:57.104Z,89.56
2023-03-07T13:16:41.147Z,89.18
2023-03-07T13:19:49.491Z,88.34
2023-03-07T13:23:00.260Z,87.83
2023-03-07T13:25:57.251Z,87.22
2023-03-07T13:28:52.539Z,85.19
2023-03-07T13:34:46.980Z,80.88
2023-03-07T13:37:45.562Z,76.71
2023-03-07T13:40:39.290Z,72.51
2023-03-07T13:43:57.946Z,69.70
2023-03-07T13:46:51.257Z,64.25
2023-03-07T13:49:45.657Z,63.79
2023-03-07T13:52:39.247Z,61.83
2023-03-07T13:55:26.298Z,60.57
2023-03-07T13:57:58.237Z,60.43
2023-03-07T14:00:32.587Z,60.17
2023-03-07T14:03:01.074Z,60.16
2023-03-07T14:05:34.750Z,59.15
2023-03-07T14:08:03.850Z,58.69
2023-03-07T14:10:33.155Z,59.38
2023-03-07T14:13:29.707Z,60.58
2023-03-07T14:16:25.218Z,62.11
2023-03-07T14:19:04.482Z,64.75
2023-03-07T14:21:45.729Z,65.98
2023-03-07T14:24:27.709Z,67.01
2023-03-07T14:27:00.876Z,68.61
2023-03-07T14:29:31.120Z,69.95
2023-03-07T14:32:01.134Z,70.92
2023-03-07T14:34:33.140Z,72.89
2023-03-07T14:37:06.572Z,74.55
2023-03-07T14:39:49.902Z,76.15
2023-03-07T14:42:27.111Z,77.49
2023-03-07T14:45:20.158Z,79.08
2023-03-07T14:48:10.849Z,79.86
2023-03-07T14:50:44.341Z,79.99
2023-03-07T14:53:21.923Z,80.08
2023-03-07T14:55:52.788Z,79.30
2023-03-07T14:58:24.492Z,79.19
2023-03-07T15:01:00.635Z,79.53
2023-03-07T15:03:29.811Z,78.01
2023-03-07T15:05:59.923Z,78.39
2023-03-07T15:08:32.075Z,79.41
2023-03-07T15:11:06.529Z,79.96
2023-03-07T15:13:39.729Z,80.21
2023-03-07T15:16:13.843Z,80.64
2023-03-07T15:18:45.992Z,80.93
2023-03-07T15:21:20.839Z,80.98
2023-03-07T15:23:55.260Z,80.71
2023-03-07T15:26:26.108Z,82.23
2023-03-07T15:29:01.513Z,84.40
2023-03-07T15:31:33.966Z,85.39
2023-03-07T15:34:13.287Z,85.92
2023-03-07T15:36:41.768Z,86.53
2023-03-07T15:39:33.566Z,87.52
2023-03-07T15:42:07.534Z,88.33
2023-03-07T15:44:36.504Z,89.22
2023-03-07T15:47:14.002Z,89.31
2023-03-07T15:49:44.218Z,89.57
2023-03-07T15:52:28.114Z,89.30
2023-03-07T15:54:59.625Z,89.53
2023-03-07T15:57:32.690Z,88.78
2023-03-07T16:00:02.971Z,87.88
2023-03-07T16:02:47.414Z,89.41
2023-03-07T16:05:33.087Z,89.84
2023-03-07T16:08:01.627Z,89.63
2023-03-07T16:10:33.026Z,90.93
2023-03-07T16:13:03.929Z,92.33
2023-03-07T16:15:32.524Z,93.45
2023-03-07T16:18:00.885Z,90.57
2023-03-07T16:20:30.323Z,94.87
2023-03-07T16:22:59.016Z,94.53
2023-03-07T16:25:32.179Z,94.69
2023-03-07T16:28:01.165Z,96.44
2023-03-07T16:30:30.577Z,96.95
2023-03-07T16:32:58.903Z,99.77
2023-03-07T16:35:29.271Z,100.00
2023-03-07T16:37:57.733Z,100.00
2023-03-07T16:40:27.333Z,100.00
2023-03-07T16:42:57.058Z,100.00
2023-03-07T16:45:27.778Z,100.00
2023-03-07T16:47:59.574Z,100.00
2023-03-07T16:50:30.068Z,100.00
2023-03-07T16:52:58.490Z,100.00
2023-03-07T16:55:28.548Z,100.00
2023-03-07T16:58:03.057Z,100.00
2023-03-07T17:00:31.984Z,100.00
2023-03-07T17:03:02.314Z,100.00
2023-03-07T17:05:30.879Z,100.00
2023-03-07T17:08:00.377Z,100.00
2023-03-07T17:10:29.786Z,100.00
2023-03-07T17:13:01.527Z,100.00
2023-03-07T17:15:32.323Z,100.00
2023-03-07T17:18:01.651Z,100.00
2023-03-07T17:20:30.155Z,100.00
2023-03-07T17:22:58.532Z,100.00
2023-03-07T17:25:28.433Z,100.00
2023-03-07T17:28:02.672Z,100.00
2023-03-07T17:30:33.211Z,100.00
2023-03-07T17:33:02.366Z,100.00
2023-03-07T17:35:30.987Z,100.00
2023-03-07T17:37:59.628Z,100.00
2023-03-07T17:40:28.156Z,100.00
2023-03-07T17:42:57.542Z,100.00
2023-03-07T17:45:27.312Z,100.00
2023-03-07T17:47:56.735Z,100.00
2023-03-07T17:50:25.715Z,100.00
2023-03-07T17:52:55.542Z,100.00
2023-03-07T17:55:26.194Z,100.00
2023-03-07T17:57:54.806Z,100.00
2023-03-07T18:00:24.280Z,96.89
2023-03-07T18:02:54.143Z,96.04
2023-03-07T18:05:26.385Z,95.89
2023-03-07T18:07:55.358Z,92.65
2023-03-07T18:10:23.988Z,91.24
2023-03-07T18:12:53.965Z,89.92
2023-03-07T18:15:23.563Z,89.31
2023-03-07T18:17:53.384Z,86.58
2023-03-07T18:20:22.671Z,83.92
2023-03-07T18:22:51.408Z,82.41
2023-03-07T18:25:20.176Z,82.30
2023-03-07T18:27:48.842Z,82.22
2023-03-07T18:30:17.964Z,82.27
2023-03-07T18:32:46.441Z,80.71
2023-03-07T18:35:16.850Z,80.34
2023-03-07T18:37:45.717Z,80.18
2023-03-07T18:40:15.010Z,79.71
2023-03-07T18:42:43.713Z,79.27
2023-03-07T18:45:13.345Z,79.01
2023-03-07T18:47:41.676Z,79.79
2023-03-07T18:50:11.704Z,80.33
2023-03-07T18:52:41.592Z,79.37
2023-03-07T18:55:10.954Z,78.56
2023-03-07T18:57:39.388Z,78.59
2023-03-07T19:00:11.420Z,78.38
2023-03-07T19:02:40.290Z,78.12
2023-03-07T19:05:10.803Z,78.55
2023-03-07T19:07:40.731Z,79.19
2023-03-07T19:10:10.220Z,79.23
2023-03-07T19:12:38.658Z,79.10
2023-03-07T19:15:08.048Z,78.35
2023-03-07T19:17:41.204Z,78.89
2023-03-07T19:20:11.076Z,79.67
2023-03-07T19:22:40.862Z,80.58
2023-03-07T19:25:10.121Z,81.55
2023-03-07T19:27:38.693Z,81.10
2023-03-07T19:30:08.244Z,80.88
2023-03-07T19:32:36.640Z,80.48
2023-03-07T19:35:06.633Z,80.44
2023-03-07T19:37:36.797Z,80.80
2023-03-07T19:40:08.389Z,81.02
2023-03-07T19:42:36.935Z,80.94
2023-03-07T19:45:07.144Z,80.46
2023-03-07T19:47:35.509Z,80.81
2023-03-07T19:50:03.838Z,81.42
2023-03-07T19:52:32.291Z,80.29
2023-03-07T19:55:00.764Z,80.22
2023-03-07T19:57:30.586Z,80.60
2023-03-07T19:59:58.945Z,81.38
2023-03-07T20:02:29.463Z,81.31
2023-03-07T20:04:58.932Z,82.11
2023-03-07T20:07:27.391Z,81.90
2023-03-07T20:09:55.783Z,81.56
2023-03-07T20:12:24.208Z,84.34
2023-03-07T20:14:54.161Z,85.97
2023-03-07T20:17:22.569Z,86.06
2023-03-07T20:19:52.006Z,85.08
2023-03-07T20:22:20.776Z,85.46
2023-03-07T20:24:51.049Z,85.91
2023-03-07T20:27:21.973Z,84.92
2023-03-07T20:29:50.532Z,84.22
2023-03-07T20:32:20.809Z,83.89
2023-03-07T20:34:52.840Z,83.71
2023-03-07T20:37:21.405Z,83.51
2023-03-07T20:39:49.780Z,83.47
2023-03-07T20:42:18.087Z,83.83
2023-03-07T20:44:46.607Z,83.38
2023-03-07T20:47:14.998Z,82.63
2023-03-07T20:49:45.290Z,82.38
2023-03-07T20:52:14.202Z,82.36
2023-03-07T20:54:44.192Z,82.31
2023-03-07T20:57:12.602Z,82.56
2023-03-07T20:59:40.928Z,82.29
2023-03-07T21:02:09.403Z,82.77
2023-03-07T21:04:37.971Z,82.94
2023-03-07T21:07:07.650Z,83.55
2023-03-07T21:09:36.120Z,83.72
2023-03-07T21:12:05.487Z,84.38
2023-03-07T21:14:33.846Z,84.59
2023-03-07T21:17:04.093Z,84.82
2023-03-07T21:19:32.484Z,84.96
2023-03-07T21:22:00.936Z,84.42
2023-03-07T21:24:30.722Z,84.34
2023-03-07T21:26:59.416Z,84.49
2023-03-07T21:29:27.739Z,84.76
2023-03-07T21:31:56.161Z,85.19
2023-03-07T21:34:24.567Z,85.40
2023-03-07T21:36:56.287Z,85.85
2023-03-07T21:39:25.987Z,86.40
2023-03-07T21:41:56.074Z,87.04
2023-03-07T21:44:24.450Z,87.82
2023-03-07T21:46:52.780Z,88.78
2023-03-07T21:49:22.287Z,89.81
2023-03-07T21:51:50.710Z,90.61
2023-03-07T21:54:19.075Z,91.64
2023-03-07T21:56:47.545Z,93.13
2023-03-07T21:59:17.298Z,93.90
2023-03-07T22:01:45.629Z,95.09
2023-03-07T22:04:14.005Z,95.51
2023-03-07T22:06:42.433Z,95.35
2023-03-07T22:09:10.754Z,95.56
2023-03-07T22:11:39.137Z,96.22
2023-03-07T22:14:07.532Z,96.57
2023-03-07T22:16:37.354Z,96.78
2023-03-07T22:19:05.726Z,97.06
2023-03-07T22:21:34.869Z,97.48
2023-03-07T22:24:03.330Z,97.13
2023-03-07T22:26:32.939Z,97.03
2023-03-07T22:29:02.810Z,97.43
2023-03-07T22:31:31.547Z,97.34
2023-03-07T22:34:01.459Z,97.16
2023-03-07T22:36:29.932Z,97.30
2023-03-07T22:38:58.610Z,97.39
2023-03-07T22:41:27.292Z,97.62
2023-03-07T22:43:55.928Z,98.08
2023-03-07T22:46:24.665Z,98.45
2023-03-07T22:48:54.229Z,98.67
2023-03-07T22:51:25.577Z,98.21
2023-03-07T22:53:54.076Z,98.00
2023-03-07T22:56:24.958Z,98.38
2023-03-07T22:58:53.443Z,99.03
2023-03-07T23:01:23.545Z,99.78
2023-03-07T23:03:52.744Z,100.00
2023-03-07T23:06:24.408Z,100.00
2023-03-07T23:08:54.715Z,100.00
2023-03-07T23:11:25.636Z,100.00
2023-03-07T23:13:54.705Z,99.88
2023-03-07T23:16:24.438Z,99.59
2023-03-07T23:18:54.992Z,99.63
2023-03-07T23:21:27.657Z,100.00
2023-03-07T23:23:57.199Z,100.00
2023-03-07T23:26:27.796Z,100.00
2023-03-07T23:28:56.451Z,100.00
2023-03-07T23:31:26.533Z,100.00
2023-03-07T23:33:57.176Z,100.00
2023-03-07T23:36:29.017Z,100.00
2023-03-07T23:38:58.296Z,100.00
2023-03-07T23:41:27.163Z,100.00
2023-03-07T23:43:56.396Z,100.00
2023-03-07T23:46:25.337Z,100.00
2023-03-07T23:48:54.184Z,100.00
2023-03-07T23:51:22.957Z,100.00
2023-03-07T23:53:52.883Z,100.00
2023-03-07T23:56:21.639Z,100.00
2023-03-07T23:58:51.534Z,100.00
